Angola, New York
Current Conditions -  °F | °C
As of 4:53 PM on Friday 24 Oct 2014 (Local Time) from KDKK Reporting Station
Clear Clear  
Wind Chill: 54°   Ceiling: Unl
Heat Index: 54°   Visibility: 10mi
Dew Point: 43°   Wind: 10mph
Humidity: 66%   Direction: 230°SW
Pressure: 29.97"   Gusts: NA
Location:  42.64°N, 79.03°W
Report Text: KDKK 242053Z AUTO 23009KT 10SM CLR 12/06 A2997 RMK AO2 SLP152 T01220061 58018
Loading
Personal Weather Stations






























Interactive Weather Map
Tropical Storm Tracking
New forecast layout! Learn more

10-Day Weather Forecast

Advertisements
Track Severe Weather on mobile